Time;durP1;ratioP1;P1;durP2;ratioP2;P2;SDS_P1;SDS_P2;PMS_P1;PMS_P2;Temp;Humidity;BMP_temperature;BMP_pressure;BME280_temperature;BME280_humidity;BME280_pressure;Samples;Min_cycle;Max_cycle;Signal;HPM_P1;HPM_P2
2022/04/22 00:00:53;;;;;;;8.67;5.03;;;10.10;99.90;;;;;;5062030;28;20178;-45
2022/04/22 00:03:18;;;;;;;8.07;4.33;;;10.00;99.90;;;;;;5061778;28;20209;-45
2022/04/22 00:05:44;;;;;;;10.07;4.30;;;10.00;99.90;;;;;;5062135;28;20186;-44
2022/04/22 00:08:09;;;;;;;6.17;4.40;;;10.00;99.90;;;;;;5062659;28;20190;-45
2022/04/22 00:10:35;;;;;;;7.13;4.23;;;10.00;99.90;;;;;;5063415;28;20218;-45
2022/04/22 00:13:01;;;;;;;9.03;4.70;;;10.00;99.90;;;;;;5064938;28;20190;-44
2022/04/22 00:15:27;;;;;;;5.47;4.20;;;9.90;99.90;;;;;;5064483;28;20193;-44
2022/04/22 00:17:52;;;;;;;6.97;4.70;;;9.90;99.90;;;;;;5060684;28;20212;-46
2022/04/22 00:20:18;;;;;;;7.23;4.80;;;9.90;99.90;;;;;;5058882;28;20638;-46
2022/04/22 00:22:44;;;;;;;8.87;4.50;;;9.90;99.90;;;;;;5058882;28;20211;-45
2022/04/22 00:25:12;;;;;;;9.13;4.80;;;9.80;99.90;;;;;;5057897;28;20195;-46
2022/04/22 00:27:39;;;;;;;8.17;4.57;;;9.80;99.90;;;;;;5059657;28;20203;-44
2022/04/22 00:30:10;;;;;;;7.60;4.90;;;9.70;99.90;;;;;;5059441;28;20172;-46
2022/04/22 00:32:35;;;;;;;8.00;5.23;;;9.70;99.90;;;;;;5058905;28;20225;-45
2022/04/22 00:35:03;;;;;;;7.10;5.03;;;9.70;99.90;;;;;;5060284;28;20645;-45
2022/04/22 00:37:29;;;;;;;8.53;5.03;;;9.60;99.90;;;;;;5059655;28;20290;-45
2022/04/22 00:39:55;;;;;;;7.87;5.10;;;9.60;99.90;;;;;;5059948;28;20213;-44
2022/04/22 00:42:21;;;;;;;7.27;5.13;;;9.60;99.90;;;;;;5060009;28;20203;-45
2022/04/22 00:44:46;;;;;;;8.60;5.17;;;9.60;99.90;;;;;;5060747;28;20273;-45
2022/04/22 00:47:12;;;;;;;5.97;4.77;;;9.50;99.90;;;;;;5059447;28;20240;-44
2022/04/22 00:49:38;;;;;;;7.30;5.27;;;9.50;99.90;;;;;;5059455;28;20635;-45
2022/04/22 00:52:04;;;;;;;7.93;5.43;;;9.50;99.90;;;;;;5058989;28;20197;-45
2022/04/22 00:54:31;;;;;;;6.50;4.57;;;9.50;99.90;;;;;;5059549;28;20190;-46
2022/04/22 00:56:57;;;;;;;7.63;5.27;;;9.50;99.90;;;;;;5058912;28;20209;-45
2022/04/22 00:59:23;;;;;;;8.13;5.10;;;9.40;99.90;;;;;;5059061;28;20281;-44
2022/04/22 01:01:48;;;;;;;7.97;5.17;;;9.40;99.90;;;;;;5059293;28;20621;-45
2022/04/22 01:09:48;;;;;;;6.30;5.00;;;9.30;99.90;;;;;;5059632;28;20182;-44
2022/04/22 01:12:15;;;;;;;7.63;5.30;;;9.30;99.90;;;;;;5060224;28;20254;-46
2022/04/22 01:14:41;;;;;;;9.27;4.90;;;9.20;99.90;;;;;;5059483;28;20648;-42
2022/04/22 01:17:08;;;;;;;8.77;5.37;;;9.20;99.90;;;;;;5059941;28;20665;-44
2022/04/22 01:19:34;;;;;;;10.10;5.37;;;9.10;99.90;;;;;;5059523;28;20212;-46
2022/04/22 01:22:01;;;;;;;8.90;5.37;;;9.20;99.90;;;;;;5060349;28;20235;-47
2022/04/22 01:24:27;;;;;;;9.73;5.27;;;9.20;99.90;;;;;;5059328;28;20590;-45
2022/04/22 01:26:57;;;;;;;7.40;5.20;;;9.10;99.90;;;;;;5059972;28;20210;-45
2022/04/22 01:29:22;;;;;;;12.03;5.70;;;9.10;99.90;;;;;;5059790;28;20176;-45
2022/04/22 01:31:48;;;;;;;8.93;5.87;;;9.10;99.90;;;;;;5061068;28;20677;-43
2022/04/22 01:34:13;;;;;;;11.97;5.63;;;9.10;99.90;;;;;;5064173;28;20173;-45
2022/04/22 01:36:39;;;;;;;12.90;5.60;;;9.10;99.90;;;;;;5063457;28;20226;-43
2022/04/22 01:39:05;;;;;;;7.57;5.77;;;9.00;99.90;;;;;;5062620;28;20205;-45
2022/04/22 01:41:30;;;;;;;6.97;5.30;;;9.00;99.90;;;;;;5063049;28;20188;-45
2022/04/22 01:43:57;;;;;;;8.87;5.33;;;9.00;99.90;;;;;;5063254;28;20180;-46
2022/04/22 01:46:23;;;;;;;10.73;5.90;;;9.00;99.90;;;;;;5061868;28;20250;-45
2022/04/22 01:48:48;;;;;;;7.77;6.20;;;9.00;99.90;;;;;;5062834;28;20184;-45
2022/04/22 01:51:14;;;;;;;8.77;6.23;;;9.00;99.90;;;;;;5061884;28;20248;-45
2022/04/22 01:53:39;;;;;;;7.67;5.90;;;9.00;99.90;;;;;;5060330;28;20288;-46
2022/04/22 01:56:05;;;;;;;13.00;7.07;;;9.00;99.90;;;;;;5062836;28;20205;-45
2022/04/22 01:58:32;;;;;;;9.17;5.97;;;8.90;99.90;;;;;;5061309;28;20208;-46
2022/04/22 02:00:58;;;;;;;10.10;6.50;;;9.00;99.90;;;;;;5061020;28;20192;-44
2022/04/22 02:03:23;;;;;;;8.33;6.37;;;8.90;99.90;;;;;;5061742;28;20174;-45
2022/04/22 02:05:49;;;;;;;9.03;6.57;;;8.90;99.90;;;;;;5061896;28;20176;-46
2022/04/22 02:08:15;;;;;;;11.87;6.80;;;9.00;99.90;;;;;;5061592;28;20180;-46
2022/04/22 02:10:44;;;;;;;9.07;6.67;;;8.90;99.90;;;;;;5061127;28;20186;-46
2022/04/22 02:13:09;;;;;;;11.57;6.97;;;8.90;99.90;;;;;;5061029;28;20168;-46
2022/04/22 02:15:36;;;;;;;12.67;6.57;;;8.90;99.90;;;;;;5061169;28;20545;-44
2022/04/22 02:18:01;;;;;;;10.10;6.83;;;8.90;99.90;;;;;;5060545;28;20242;-46
2022/04/22 02:20:27;;;;;;;11.23;6.73;;;8.90;99.90;;;;;;5061512;28;20545;-43
2022/04/22 02:22:53;;;;;;;11.20;6.67;;;8.90;99.90;;;;;;5060653;28;20172;-46
2022/04/22 02:25:18;;;;;;;10.50;6.50;;;8.90;99.90;;;;;;5060093;28;20252;-46
2022/04/22 02:30:28;;;;;;;12.73;7.07;;;8.90;99.90;;;;;;5060184;28;20163;-46
2022/04/22 02:32:54;;;;;;;9.17;6.40;;;8.80;99.90;;;;;;5060231;28;20251;-46
2022/04/22 02:35:21;;;;;;;10.40;6.77;;;8.80;99.90;;;;;;5059793;28;20178;-46
2022/04/22 02:37:50;;;;;;;8.13;6.37;;;8.70;99.90;;;;;;5059957;28;20274;-47
2022/04/22 02:45:47;;;;;;;10.30;6.73;;;8.70;99.90;;;;;;5058974;28;20176;-39
2022/04/22 02:48:13;;;;;;;11.00;7.40;;;8.60;99.90;;;;;;5055034;28;20550;-38
2022/04/22 02:50:39;;;;;;;9.17;6.60;;;8.60;99.90;;;;;;5054882;28;20188;-40
2022/04/22 02:53:04;;;;;;;15.63;7.50;;;8.60;99.90;;;;;;5054969;28;20263;-41
2022/04/22 02:55:30;;;;;;;8.17;6.90;;;8.60;99.90;;;;;;5054895;28;20554;-41
2022/04/22 02:57:56;;;;;;;10.47;7.10;;;8.50;99.90;;;;;;5054713;28;20204;-40
2022/04/22 03:00:24;;;;;;;10.90;6.83;;;8.50;99.90;;;;;;5055097;28;20211;-39
2022/04/22 03:02:49;;;;;;;9.53;7.17;;;8.50;99.90;;;;;;5054777;28;20172;-41
2022/04/22 03:05:15;;;;;;;8.37;6.40;;;8.40;99.90;;;;;;5054718;28;20275;-38
2022/04/22 03:07:40;;;;;;;11.73;6.60;;;8.40;99.90;;;;;;5054635;28;20196;-39
2022/04/22 03:10:07;;;;;;;13.03;7.17;;;8.40;99.90;;;;;;5054745;28;20255;-38
2022/04/22 03:12:34;;;;;;;10.17;6.90;;;8.30;99.90;;;;;;5054479;28;20263;-38
2022/04/22 03:15:00;;;;;;;11.07;8.23;;;8.40;99.90;;;;;;5054490;28;20650;-40
2022/04/22 03:17:26;;;;;;;9.47;6.43;;;8.30;99.90;;;;;;5054403;28;20253;-39
2022/04/22 03:19:51;;;;;;;10.27;6.97;;;8.40;99.90;;;;;;5054354;28;20664;-42
2022/04/22 03:22:17;;;;;;;14.60;6.97;;;8.40;99.90;;;;;;5054633;28;20184;-41
2022/04/22 03:24:43;;;;;;;7.67;6.33;;;8.30;99.90;;;;;;5054347;28;20659;-41
2022/04/22 03:27:09;;;;;;;10.17;6.60;;;8.40;99.90;;;;;;5054252;28;20237;-40
2022/04/22 03:29:35;;;;;;;8.57;7.13;;;8.40;99.90;;;;;;5054536;28;20255;-40
2022/04/22 03:32:01;;;;;;;9.47;7.03;;;8.40;99.90;;;;;;5054449;28;20632;-42
2022/04/22 03:34:27;;;;;;;9.27;6.80;;;8.40;99.90;;;;;;5054408;28;20220;-41
2022/04/22 03:36:53;;;;;;;11.90;7.60;;;8.40;99.90;;;;;;5054165;28;20281;-40
2022/04/22 03:39:18;;;;;;;12.30;7.50;;;8.40;99.90;;;;;;5053983;28;20196;-40
2022/04/22 03:41:44;;;;;;;11.80;7.60;;;8.50;99.90;;;;;;5054061;28;20708;-39
2022/04/22 03:44:10;;;;;;;9.17;7.10;;;8.50;99.90;;;;;;5054261;28;20176;-41
2022/04/22 03:46:36;;;;;;;8.67;6.87;;;8.50;99.90;;;;;;5054163;28;20196;-40
2022/04/22 03:49:04;;;;;;;10.43;7.03;;;8.50;99.90;;;;;;5053914;28;20271;-40
2022/04/22 03:51:30;;;;;;;8.33;6.90;;;8.50;99.90;;;;;;5054054;28;20568;-39
2022/04/22 03:53:55;;;;;;;9.17;7.40;;;8.50;99.90;;;;;;5053783;28;20176;-41
2022/04/22 03:59:06;;;;;;;8.63;7.10;;;8.50;99.90;;;;;;5054379;28;20729;-41
2022/04/22 04:01:32;;;;;;;10.07;7.40;;;8.50;99.90;;;;;;5054600;28;20187;-40
2022/04/22 04:03:58;;;;;;;8.87;7.27;;;8.60;99.90;;;;;;5053749;28;20272;-40
2022/04/22 04:06:24;;;;;;;9.73;7.47;;;8.60;99.90;;;;;;5053867;28;20279;-40
2022/04/22 04:17:05;;;;;;;14.97;7.70;;;8.60;99.90;;;;;;5053514;28;20572;-41
2022/04/22 04:24:59;;;;;;;14.43;8.53;;;8.50;99.90;;;;;;5053362;28;20179;-40
2022/04/22 04:27:24;;;;;;;19.10;8.17;;;8.50;99.90;;;;;;5053223;28;20664;-41
2022/04/22 04:29:50;;;;;;;12.17;8.57;;;8.50;99.90;;;;;;5053315;28;20169;-39
2022/04/22 04:32:19;;;;;;;14.47;8.20;;;8.50;99.90;;;;;;5053182;28;20187;-41
2022/04/22 04:34:45;;;;;;;14.93;8.40;;;8.50;99.90;;;;;;5053743;28;20173;-38
2022/04/22 04:37:12;;;;;;;16.77;8.83;;;8.50;99.90;;;;;;5053138;28;20254;-39
2022/04/22 04:39:38;;;;;;;11.83;8.40;;;8.40;99.90;;;;;;5053347;28;20212;-41
2022/04/22 04:42:04;;;;;;;14.60;9.77;;;8.40;99.90;;;;;;5053146;28;20594;-39
2022/04/22 04:44:30;;;;;;;11.60;8.43;;;8.40;99.90;;;;;;5053399;28;20176;-40
2022/04/22 04:46:55;;;;;;;13.37;8.90;;;8.30;99.90;;;;;;5053092;28;20195;-40
2022/04/22 04:49:21;;;;;;;14.13;9.23;;;8.40;99.90;;;;;;5052975;28;20516;-40
2022/04/22 04:51:47;;;;;;;14.27;9.40;;;8.30;99.90;;;;;;5053015;28;20192;-40
2022/04/22 04:54:12;;;;;;;12.20;8.33;;;8.30;99.90;;;;;;5053254;28;20666;-45
2022/04/22 04:56:38;;;;;;;12.90;8.47;;;8.30;99.90;;;;;;5055710;28;20199;-44
2022/04/22 04:59:03;;;;;;;12.90;8.67;;;8.30;99.90;;;;;;5056251;28;20242;-45
2022/04/22 05:01:29;;;;;;;12.50;9.10;;;8.20;99.90;;;;;;5055121;28;20310;-45
2022/04/22 05:03:55;;;;;;;16.63;9.73;;;8.30;99.90;;;;;;5056759;28;20523;-44
2022/04/22 05:06:20;;;;;;;15.00;8.83;;;8.20;99.90;;;;;;5057018;28;20199;-45
2022/04/22 05:08:46;;;;;;;15.70;10.10;;;8.30;99.90;;;;;;5060784;28;20247;-43
2022/04/22 05:11:11;;;;;;;15.13;10.70;;;8.30;99.90;;;;;;5060578;28;20590;-44
2022/04/22 05:13:37;;;;;;;16.50;9.87;;;8.30;99.90;;;;;;5060642;28;20184;-45
2022/04/22 05:16:03;;;;;;;12.37;9.30;;;8.30;99.90;;;;;;5060193;28;20211;-44
2022/04/22 05:18:29;;;;;;;16.40;9.97;;;8.30;99.90;;;;;;5058960;28;20215;-44
2022/04/22 05:20:55;;;;;;;14.17;9.00;;;8.40;99.90;;;;;;5060384;28;20586;-45
2022/04/22 05:23:21;;;;;;;15.67;9.93;;;8.40;99.90;;;;;;5060589;28;20188;-45
2022/04/22 05:25:47;;;;;;;13.33;9.17;;;8.40;99.90;;;;;;5060292;28;20180;-45
2022/04/22 05:28:12;;;;;;;13.07;9.87;;;8.40;99.90;;;;;;5061066;28;20184;-44
2022/04/22 05:33:22;;;;;;;19.57;10.97;;;8.40;99.90;;;;;;5060546;28;20167;-45
2022/04/22 05:35:48;;;;;;;26.63;11.60;;;8.50;99.90;;;;;;5060323;28;20172;-45
2022/04/22 05:38:15;;;;;;;15.30;11.00;;;8.50;99.90;;;;;;5057034;28;20588;-44
2022/04/22 05:40:42;;;;;;;19.83;9.90;;;8.60;99.90;;;;;;5056671;28;20190;-45
2022/04/22 05:43:08;;;;;;;19.07;11.37;;;8.60;99.90;;;;;;5056415;28;20179;-42
2022/04/22 05:45:36;;;;;;;17.57;10.57;;;8.70;99.90;;;;;;5056332;28;20195;-43
2022/04/22 05:48:03;;;;;;;19.80;11.80;;;8.70;99.90;;;;;;5057296;28;20218;-44
2022/04/22 05:50:29;;;;;;;19.07;12.00;;;8.70;99.90;;;;;;5056094;28;20253;-42
2022/04/22 05:52:55;;;;;;;19.40;11.37;;;8.80;99.90;;;;;;5056270;28;20180;-44
2022/04/22 05:55:23;;;;;;;18.80;12.00;;;8.90;99.90;;;;;;5056346;28;20176;-45
2022/04/22 05:57:50;;;;;;;19.37;12.87;;;8.90;99.90;;;;;;5056238;28;20210;-44
2022/04/22 06:00:18;;;;;;;18.23;11.00;;;9.00;99.90;;;;;;5056317;28;20172;-43
2022/04/22 06:02:44;;;;;;;15.80;11.50;;;9.10;99.90;;;;;;5056318;28;20546;-45
2022/04/22 06:05:12;;;;;;;18.90;11.70;;;9.20;99.90;;;;;;5056007;28;20651;-44
2022/04/22 06:07:38;;;;;;;22.13;12.23;;;9.20;99.90;;;;;;5056032;28;20245;-44
2022/04/22 06:12:50;;;;;;;22.07;12.33;;;9.40;99.90;;;;;;5056442;28;20203;-44
2022/04/22 06:15:16;;;;;;;21.07;12.23;;;9.40;99.90;;;;;;5056137;28;20226;-44
2022/04/22 06:17:42;;;;;;;21.17;11.70;;;9.40;99.90;;;;;;5056083;28;20613;-43
2022/04/22 06:20:08;;;;;;;20.07;11.83;;;9.60;99.90;;;;;;5055472;28;20172;-44
2022/04/22 06:22:34;;;;;;;20.23;11.77;;;9.60;99.90;;;;;;5055598;28;20218;-45
2022/04/22 06:24:59;;;;;;;19.83;11.27;;;9.70;99.90;;;;;;5055602;28;20200;-43
2022/04/22 06:27:34;;;;;;;19.00;12.60;;;9.80;99.90;;;;;;5055833;28;20305;-44
2022/04/22 06:30:07;;;;;;;19.27;12.13;;;10.00;99.90;;;;;;5055808;28;20171;-44
2022/04/22 06:32:33;;;;;;;18.20;11.83;;;10.00;99.90;;;;;;5055467;28;20157;-44
2022/04/22 06:34:59;;;;;;;15.90;10.43;;;10.00;99.90;;;;;;5055321;28;20287;-44
2022/04/22 06:37:25;;;;;;;15.63;9.43;;;10.10;99.90;;;;;;5055537;28;20245;-44
2022/04/22 06:48:05;;;;;;;20.60;12.17;;;10.40;99.90;;;;;;5035788;28;20752;-40
2022/04/22 06:50:31;;;;;;;15.90;10.80;;;10.50;99.90;;;;;;5035253;28;20198;-40
2022/04/22 06:52:57;;;;;;;16.17;11.03;;;10.60;99.90;;;;;;5035532;28;20642;-40
2022/04/22 06:55:24;;;;;;;16.10;10.80;;;10.70;99.90;;;;;;5035442;28;20182;-40
2022/04/22 06:57:50;;;;;;;16.90;11.90;;;10.80;99.90;;;;;;5035237;28;20202;-42
2022/04/22 07:00:17;;;;;;;20.93;10.90;;;10.90;99.90;;;;;;5035101;28;20519;-42
2022/04/22 07:02:43;;;;;;;16.47;11.30;;;10.90;99.90;;;;;;5034930;28;20662;-39
2022/04/22 07:05:09;;;;;;;16.97;11.33;;;11.00;99.90;;;;;;5035050;28;20196;-41
2022/04/22 07:07:35;;;;;;;15.80;11.67;;;11.10;99.90;;;;;;5034817;28;20206;-42
2022/04/22 07:10:02;;;;;;;16.33;11.27;;;11.20;99.90;;;;;;5035087;28;20184;-42
2022/04/22 07:12:28;;;;;;;16.93;12.03;;;11.20;99.90;;;;;;5033722;28;20184;-42
2022/04/22 07:15:05;;;;;;;16.80;11.13;;;11.40;99.90;;;;;;5034935;28;20195;-43
2022/04/22 07:17:33;;;;;;;15.27;10.93;;;11.40;99.90;;;;;;5034787;28;20204;-41
2022/04/22 07:20:00;;;;;;;17.63;11.80;;;11.50;99.90;;;;;;5034785;28;20219;-42
2022/04/22 07:22:27;;;;;;;15.67;10.60;;;11.60;99.90;;;;;;5034674;28;20180;-43
2022/04/22 07:24:53;;;;;;;17.80;11.10;;;11.60;99.90;;;;;;5034641;28;20172;-43
2022/04/22 07:27:27;;;;;;;17.53;12.13;;;11.80;99.90;;;;;;5034667;28;20200;-41
2022/04/22 07:29:57;;;;;;;16.77;10.03;;;11.80;99.90;;;;;;5034952;28;20573;-41
2022/04/22 07:32:22;;;;;;;19.97;11.70;;;11.90;99.90;;;;;;5033653;28;20181;-42
2022/04/22 07:34:48;;;;;;;17.10;11.90;;;12.20;99.90;;;;;;5035051;28;20268;-43
2022/04/22 07:37:14;;;;;;;16.90;11.03;;;12.30;99.90;;;;;;5035035;28;20275;-44
2022/04/22 07:39:40;;;;;;;17.60;11.23;;;12.30;99.90;;;;;;5034376;28;20282;-41
2022/04/22 07:42:07;;;;;;;16.90;10.50;;;12.40;99.90;;;;;;5034609;28;20239;-41
2022/04/22 07:47:19;;;;;;;12.97;9.80;;;12.80;99.90;;;;;;5034583;28;20243;-43
2022/04/22 07:49:45;;;;;;;17.67;11.70;;;13.00;99.90;;;;;;5034472;28;20189;-42
2022/04/22 07:52:10;;;;;;;16.30;9.47;;;13.10;99.90;;;;;;5034121;28;20525;-42
2022/04/22 07:54:36;;;;;;;15.80;9.50;;;13.20;99.90;;;;;;5034182;28;20181;-42
2022/04/22 07:57:02;;;;;;;12.57;9.33;;;13.20;99.90;;;;;;5034143;28;20645;-43
2022/04/22 07:59:28;;;;;;;12.57;9.00;;;13.40;99.90;;;;;;5033894;28;20202;-43
2022/04/22 08:01:54;;;;;;;12.30;9.67;;;13.40;99.90;;;;;;5034282;28;20188;-42
2022/04/22 08:04:19;;;;;;;16.63;9.57;;;13.30;99.90;;;;;;5034141;28;20231;-43
2022/04/22 08:06:45;;;;;;;12.60;9.37;;;13.30;99.90;;;;;;5034745;28;20254;-43
2022/04/22 08:09:11;;;;;;;12.40;10.03;;;13.10;99.90;;;;;;5033923;28;20636;-42
2022/04/22 08:11:37;;;;;;;13.13;9.90;;;13.10;99.90;;;;;;5033941;28;20184;-42
2022/04/22 08:14:02;;;;;;;12.47;9.77;;;13.00;99.90;;;;;;5034147;28;20180;-43
2022/04/22 08:16:28;;;;;;;12.13;9.37;;;12.90;99.90;;;;;;5034028;28;20573;-44
2022/04/22 08:18:54;;;;;;;14.57;9.93;;;12.80;99.90;;;;;;5034120;28;20245;-42
2022/04/22 08:21:19;;;;;;;13.03;10.43;;;12.80;99.90;;;;;;5033941;28;20610;-42
2022/04/22 08:23:46;;;;;;;13.67;8.80;;;12.80;99.90;;;;;;5032836;28;20192;-43
2022/04/22 08:26:13;;;;;;;13.23;8.50;;;12.80;99.90;;;;;;5034247;28;20192;-43
2022/04/22 08:28:39;;;;;;;11.57;9.73;;;12.80;99.90;;;;;;5033831;28;20196;-41
2022/04/22 08:31:04;;;;;;;12.13;10.00;;;12.70;99.90;;;;;;5033560;28;20176;-50
2022/04/22 08:33:30;;;;;;;11.20;9.03;;;12.70;99.90;;;;;;5033514;28;20175;-49
2022/04/22 08:35:56;;;;;;;13.70;10.07;;;12.70;99.90;;;;;;5033677;28;20213;-46
2022/04/22 08:38:23;;;;;;;12.97;9.67;;;12.70;99.90;;;;;;5033286;28;20209;-49
2022/04/22 08:40:48;;;;;;;14.00;9.50;;;12.70;99.90;;;;;;5033193;28;20198;-48
2022/04/22 08:43:15;;;;;;;13.70;10.07;;;12.70;99.90;;;;;;5033286;28;20649;-47
2022/04/22 08:45:40;;;;;;;14.77;10.27;;;12.60;99.90;;;;;;5033589;28;20185;-47
2022/04/22 08:50:55;;;;;;;14.20;8.83;;;12.60;99.90;;;;;;5033692;28;20674;-48
2022/04/22 08:53:28;;;;;;;13.60;9.97;;;12.60;99.90;;;;;;5033257;28;20184;-49
2022/04/22 08:55:57;;;;;;;13.03;10.53;;;12.60;99.90;;;;;;5033479;28;20165;-49
2022/04/22 08:58:25;;;;;;;11.27;9.13;;;12.70;99.90;;;;;;5033155;28;20295;-48
2022/04/22 09:00:52;;;;;;;13.20;8.80;;;12.90;99.90;;;;;;5033526;28;20187;-48
2022/04/22 09:03:19;;;;;;;12.20;8.70;;;13.20;99.90;;;;;;5033635;28;20176;-48
2022/04/22 09:05:45;;;;;;;14.50;9.37;;;13.40;99.90;;;;;;5041422;28;20176;-47
2022/04/22 09:08:11;;;;;;;12.57;8.57;;;13.60;99.90;;;;;;5045151;28;20200;-47
2022/04/22 09:10:38;;;;;;;11.60;8.13;;;13.70;99.90;;;;;;5039028;28;20217;-49
2022/04/22 09:13:09;;;;;;;11.07;8.33;;;13.80;99.90;;;;;;5033819;28;20656;-49
2022/04/22 09:15:36;;;;;;;13.90;8.60;;;13.70;99.90;;;;;;5033665;28;20162;-50
2022/04/22 09:18:13;;;;;;;12.60;8.60;;;13.70;99.90;;;;;;5033353;28;20207;-48
2022/04/22 09:20:39;;;;;;;11.97;8.27;;;13.70;99.90;;;;;;5033271;28;20297;-50
2022/04/22 09:23:34;;;;;;;11.27;8.53;;;13.80;99.90;;;;;;5033303;28;20191;-48
2022/04/22 09:26:01;;;;;;;11.33;8.10;;;13.90;99.90;;;;;;5033165;28;20173;-47
2022/04/22 09:28:27;;;;;;;12.13;8.77;;;13.90;99.90;;;;;;5033271;28;20193;-49
2022/04/22 09:31:00;;;;;;;10.73;8.67;;;13.90;99.90;;;;;;5033217;28;20185;-48
2022/04/22 09:33:35;;;;;;;12.63;8.77;;;13.80;99.90;;;;;;5033158;28;20165;-49
2022/04/22 09:44:49;;;;;;;10.37;7.37;;;14.20;99.90;;;;;;5032943;28;20173;-49
2022/04/22 09:47:14;;;;;;;10.00;7.47;;;14.50;99.90;;;;;;5033067;28;20197;-49
2022/04/22 09:49:45;;;;;;;9.23;7.03;;;14.60;99.90;;;;;;5032795;28;20187;-48
2022/04/22 09:52:11;;;;;;;7.83;6.30;;;14.70;99.90;;;;;;5033108;28;20643;-49
2022/04/22 09:54:40;;;;;;;7.47;5.87;;;14.70;99.90;;;;;;5034868;28;20177;-50
2022/04/22 09:57:05;;;;;;;6.90;5.80;;;14.80;99.90;;;;;;5036298;28;20196;-48
2022/04/22 09:59:32;;;;;;;8.20;6.70;;;15.00;99.90;;;;;;5036357;28;20204;-47
2022/04/22 10:02:00;;;;;;;7.27;5.90;;;15.20;99.90;;;;;;5034919;28;20181;-51
2022/04/22 10:04:27;;;;;;;8.33;5.70;;;15.20;99.90;;;;;;5036331;28;20173;-50
2022/04/22 10:06:54;;;;;;;7.50;6.00;;;15.30;99.90;;;;;;5036350;28;20255;-49
2022/04/22 10:09:21;;;;;;;11.47;5.97;;;15.30;99.90;;;;;;5036344;28;20632;-50
2022/04/22 10:11:52;;;;;;;8.73;6.70;;;15.40;99.90;;;;;;5036398;28;20608;-48
2022/04/22 10:14:35;;;;;;;10.00;6.63;;;15.40;99.90;;;;;;5036539;28;20215;-49
2022/04/22 10:17:03;;;;;;;9.80;7.03;;;15.50;99.90;;;;;;5036038;28;20262;-49
2022/04/22 10:19:29;;;;;;;9.77;7.23;;;15.50;99.90;;;;;;5036082;28;20216;-49
2022/04/22 10:21:55;;;;;;;11.40;7.03;;;15.40;99.90;;;;;;5035758;28;20187;-49
2022/04/22 10:24:21;;;;;;;9.43;7.23;;;15.20;99.90;;;;;;5035804;28;20177;-49
2022/04/22 10:26:48;;;;;;;11.27;7.47;;;15.10;99.90;;;;;;5035920;28;20277;-50
2022/04/22 10:29:14;;;;;;;10.17;6.90;;;15.10;99.90;;;;;;5034503;28;20185;-50
2022/04/22 10:31:40;;;;;;;8.40;7.10;;;15.10;99.90;;;;;;5035730;28;20216;-49
2022/04/22 10:34:06;;;;;;;10.77;7.60;;;15.20;99.90;;;;;;5035712;28;20201;-50
2022/04/22 10:36:33;;;;;;;10.73;7.30;;;15.20;99.90;;;;;;5035748;28;20243;-49
2022/04/22 10:38:59;;;;;;;10.23;7.70;;;15.20;99.90;;;;;;5035520;28;20233;-49
2022/04/22 10:41:25;;;;;;;8.73;7.07;;;15.20;99.90;;;;;;5035256;28;20169;-49
2022/04/22 10:49:39;;;;;;;10.77;6.50;;;15.30;99.90;;;;;;5035841;28;20528;-48
2022/04/22 10:52:13;;;;;;;9.43;6.43;;;15.20;99.90;;;;;;5035536;28;20185;-49
2022/04/22 10:54:54;;;;;;;9.40;7.47;;;15.20;99.90;;;;;;5035103;28;20157;-50
2022/04/22 10:57:24;;;;;;;9.07;6.63;;;15.40;99.90;;;;;;5035321;28;20596;-47
2022/04/22 11:00:08;;;;;;;9.97;6.97;;;15.60;99.90;;;;;;5035568;28;20208;-49
2022/04/22 11:02:36;;;;;;;8.13;6.27;;;15.60;99.90;;;;;;5035332;28;20185;-51
2022/04/22 11:05:34;;;;;;;10.93;6.33;;;15.60;99.90;;;;;;5034471;28;20183;-49
2022/04/22 11:08:00;;;;;;;10.30;6.80;;;15.60;99.90;;;;;;5035132;28;20207;-50
2022/04/22 11:10:48;;;;;;;9.17;6.73;;;15.60;99.90;;;;;;5035115;28;20187;-49
2022/04/22 11:13:40;;;;;;;6.43;5.57;;;15.70;99.90;;;;;;5034817;28;20215;-51
2022/04/22 11:16:28;;;;;;;10.90;6.63;;;15.80;99.90;;;;;;5034701;28;20683;-49
2022/04/22 11:19:11;;;;;;;8.63;6.37;;;15.90;99.90;;;;;;5035003;28;20189;-51
2022/04/22 11:21:37;;;;;;;10.53;7.17;;;16.10;99.90;;;;;;5035042;28;20177;-52
2022/04/22 11:24:19;;;;;;;9.03;6.67;;;16.30;99.90;;;;;;5034933;28;20527;-50
2022/04/22 11:26:45;;;;;;;7.27;6.40;;;16.50;99.90;;;;;;5034733;28;20188;-49
2022/04/22 11:29:12;;;;;;;7.23;6.43;;;16.60;99.90;;;;;;5034807;28;20184;-50
2022/04/22 11:31:38;;;;;;;7.73;6.90;;;16.70;99.90;;;;;;5034803;28;20184;-49
2022/04/22 11:34:07;;;;;;;8.40;6.57;;;16.90;99.90;;;;;;5034369;28;20169;-50
2022/04/22 11:36:46;;;;;;;9.57;7.27;;;16.90;99.90;;;;;;5034178;28;20244;-51
2022/04/22 11:39:19;;;;;;;7.47;6.47;;;16.90;99.90;;;;;;5034164;28;20346;-48
2022/04/22 11:41:59;;;;;;;6.70;6.00;;;17.00;99.90;;;;;;5034516;28;20240;-49
2022/04/22 11:44:25;;;;;;;8.13;6.73;;;17.10;99.90;;;;;;5034504;28;20165;-50
2022/04/22 11:46:51;;;;;;;7.47;6.30;;;17.30;99.90;;;;;;5034091;28;20691;-50
2022/04/22 11:49:17;;;;;;;9.37;6.37;;;17.20;99.90;;;;;;5034123;28;20251;-50
2022/04/22 11:51:44;;;;;;;9.27;6.23;;;17.10;99.90;;;;;;5034376;28;20181;-49
2022/04/22 11:54:09;;;;;;;6.53;5.83;;;17.00;99.90;;;;;;5034327;28;20191;-50
2022/04/22 11:56:35;;;;;;;7.57;6.50;;;17.00;99.90;;;;;;5034412;28;20559;-50
2022/04/22 11:59:02;;;;;;;7.97;6.20;;;17.00;99.90;;;;;;5034120;28;20759;-49
2022/04/22 12:08:00;;;;;;;7.50;6.60;;;17.30;99.90;;;;;;5034379;28;20279;-51
2022/04/22 12:09:57;;;;;;;6.43;5.83;;;17.50;99.90;;;;;;5033661;28;20180;-50
2022/04/22 12:12:24;;;;;;;7.73;5.57;;;17.60;99.90;;;;;;5034086;28;20614;-51
2022/04/22 12:14:59;;;;;;;11.17;6.13;;;17.60;99.90;;;;;;5034415;28;20235;-51
2022/04/22 12:17:24;;;;;;;8.13;5.37;;;17.60;99.90;;;;;;5032030;28;20302;-50
2022/04/22 12:19:51;;;;;;;9.13;6.00;;;17.90;99.90;;;;;;5033488;28;20280;-49
2022/04/22 12:22:17;;;;;;;7.00;5.70;;;18.00;99.90;;;;;;5033863;28;20545;-50
2022/04/22 12:25:08;;;;;;;6.90;5.77;;;18.10;99.90;;;;;;5033487;28;20173;-51
2022/04/22 12:27:34;;;;;;;9.80;5.53;;;18.20;99.90;;;;;;5033755;28;20236;-51
2022/04/22 12:30:08;;;;;;;6.13;5.53;;;18.20;99.90;;;;;;5033728;28;20215;-51
2022/04/22 12:32:36;;;;;;;6.23;5.17;;;18.20;99.90;;;;;;5033710;28;20538;-50
2022/04/22 12:35:17;;;;;;;7.00;5.87;;;18.20;99.90;;;;;;5033663;28;20189;-49
2022/04/22 12:37:53;;;;;;;6.80;6.13;;;18.30;99.90;;;;;;5033537;28;20251;-50
2022/04/22 12:40:21;;;;;;;10.33;5.50;;;18.50;99.90;;;;;;5033365;28;20197;-50
2022/04/22 12:42:47;;;;;;;5.53;5.03;;;18.60;99.90;;;;;;5033654;28;20188;-51
2022/04/22 12:53:42;;;;;;;6.90;5.47;;;18.10;99.90;;;;;;5033830;28;20173;-45
2022/04/22 12:56:09;;;;;;;6.33;5.20;;;18.10;99.90;;;;;;5033549;28;20193;-43
2022/04/22 12:58:56;;;;;;;6.63;5.93;;;18.10;99.90;;;;;;5033150;28;20739;-44
2022/04/22 13:01:32;;;;;;;11.57;5.43;;;18.10;99.90;;;;;;5032674;28;20169;-44
2022/04/22 13:03:58;;;;;;;6.97;5.43;;;18.00;99.90;;;;;;5033539;28;20184;-44
2022/04/22 13:06:47;;;;;;;7.73;5.07;;;17.90;99.90;;;;;;5033428;28;20204;-44
2022/04/22 13:09:14;;;;;;;9.00;5.23;;;17.90;99.90;;;;;;5033562;28;20157;-43
2022/04/22 13:11:40;;;;;;;8.13;5.57;;;18.00;99.90;;;;;;5033368;28;20177;-44
2022/04/22 13:14:07;;;;;;;8.07;5.63;;;18.00;99.90;;;;;;5033208;28;20268;-43
2022/04/22 13:16:33;;;;;;;6.07;5.43;;;18.00;99.90;;;;;;5045426;28;20204;-45
2022/04/22 13:19:00;;;;;;;9.10;5.40;;;18.00;99.90;;;;;;5046529;28;20216;-44
2022/04/22 13:21:26;;;;;;;6.20;5.57;;;18.20;99.90;;;;;;5043040;28;20177;-43
2022/04/22 13:23:52;;;;;;;5.90;5.30;;;18.30;99.90;;;;;;5033256;28;20188;-44
2022/04/22 13:26:18;;;;;;;6.73;5.40;;;18.40;99.90;;;;;;5033586;28;20197;-43
2022/04/22 13:28:44;;;;;;;5.43;4.93;;;18.60;99.90;;;;;;5035992;28;20185;-45
2022/04/22 13:31:09;;;;;;;8.10;4.80;;;18.80;99.90;;;;;;5037092;28;20244;-45
2022/04/22 13:33:35;;;;;;;5.30;4.80;;;18.90;99.90;;;;;;5037283;28;20582;-45
2022/04/22 13:36:05;;;;;;;5.80;5.20;;;19.00;99.90;;;;;;5036814;28;20180;-44
2022/04/22 13:38:35;;;;;;;5.60;4.73;;;19.00;99.90;;;;;;5037264;28;20196;-44
2022/04/22 13:41:01;;;;;;;10.07;6.00;;;19.00;99.90;;;;;;5036536;28;20566;-44
2022/04/22 13:43:30;;;;;;;9.97;5.77;;;19.20;99.90;;;;;;5037057;28;20169;-45
2022/04/22 13:54:11;;;;;;;6.67;4.80;;;19.30;99.90;;;;;;5036325;28;20656;-43
2022/04/22 13:56:37;;;;;;;6.70;5.63;;;19.10;99.90;;;;;;5036441;28;20197;-44
2022/04/22 13:59:03;;;;;;;6.33;5.70;;;19.20;99.90;;;;;;5036517;28;20258;-43
2022/04/22 14:01:28;;;;;;;9.43;6.20;;;19.30;99.90;;;;;;5036948;28;20215;-44
2022/04/22 14:03:54;;;;;;;8.50;6.37;;;19.20;99.90;;;;;;5036341;28;20252;-44
2022/04/22 14:06:20;;;;;;;7.43;6.60;;;19.00;99.90;;;;;;5036326;28;20558;-45
2022/04/22 14:08:45;;;;;;;9.67;7.10;;;18.90;99.90;;;;;;5036131;28;20632;-44
2022/04/22 14:11:11;;;;;;;7.83;6.20;;;18.80;99.90;;;;;;5034939;28;20183;-43